Loudon, New Hampshire
Current Conditions -  °F | °C
As of 10:51 AM on Saturday 25 Oct 2014 (Local Time) from KCON Reporting Station
Clear Clear  
Wind Chill: 13°   Ceiling: Unl
Heat Index: 13°   Visibility: 10mi
Dew Point:   Wind: 5mph
Humidity: 57%   Direction: 310°NW
Pressure: 29.7"   Gusts: NA
Location:  43.18°N, 71.56°W
Report Text: KCON 251451Z AUTO 31004KT 10SM CLR 13/05 A2970 RMK AO2 SLP060 T01330050 58015
Loading
Personal Weather Stations






























Interactive Weather Map New forecast layout! Learn more

10-Day Weather Forecast

Advertisements
Track Severe Weather on mobile